Boulder, WY

11:26 PM MDT on October 21, 2014 (GMT -0600)
Wenz | Change Station
CLOSE
Current Station
Airport
Location: Pinedale,
Elevation: 7087 ft
Nearby Weather Stations

Elev 7087 ft 42.80 °N, 109.81 °W | Updated 11 minutes ago

Partly Cloudy
Partly Cloudy
28 °F
Feels Like 23 °F
N
5
Wind Variable Wind from West

Today
High -- | Low -- °F
--% Chance of Precip.
Yesterday
High -- | Low -- °F
Precip. -- in
7:39 AM 6:26 PM
Waning Crescent, 3% visible
Pressure 30.11 in
Visibility 10.0 miles
Clouds Scattered Clouds 11000 ft
Windchill 23 °F
Dew Point 25 °F
Humidity 86%
Rainfall 0.00 in
Snow Depth Not available.
UV 0 out of 12
Pollen 3.00 out of 12
Air Quality Not available.
Flu Activity Sporadic
METAR KPNA 220515Z AUTO 27004KT 10SM SCT110 M02/M04 A3011 RMK AO2

More Conditions Fewer Conditions

Pressure 30.11 in
Visibility 10.0 miles
Clouds Scattered Clouds 11000 ft
Windchill 23 °F
Dew Point 25 °F
Humidity 86%
Rainfall 0.00 in
Snow Depth Not available.
UV 0 out of 12
Pollen 3.00 out of 12
Air Quality Not available.
Flu Activity Sporadic
METAR KPNA 220515Z AUTO 27004KT 10SM SCT110 M02/M04 A3011 RMK AO2

More Conditions Fewer Conditions

10-Day Weather Forecast

Almanac

Astronomy

Oct. 21, 2014 Rise Set
Actual Time 7:39 AM MDT 6:26 PM MDT
Civil Twilight 7:10 AM MDT 6:55 PM MDT
Nautical Twilight 6:37 AM MDT 7:28 PM MDT
Astronomical Twilight 6:04 AM MDT 8:01 PM MDT
Moon 5:23 AM MDT (10/21) 5:24 PM MDT (10/21)
Length of Visible Light 11h 45m
Length of Day
10h 47m
Tomorrow will be 2m 44s shorter.
Waning Crescent, 3% of the Moon is Illuminated
Oct 22
Waning Crescent
Oct 23
New
Oct 30
First Quarter
Nov 6
Full
Nov 14
Last Quarter

Yesterday's Extremes

State Highs State Lows

Community

WunderPhotos

Upload Photos

1,763,884 photos uploaded!

Nearby

Snow Depth

Station Depth Elevation
Big Sandy Opening 1 in 9080 ft
New Fork Lake 0 in 8340 ft
Loomis Park 0 in 8240 ft
East Rim Divide 0 in 7930 ft
Kendall R.S. 1 in 7740 ft

Earthquake Activity

City Distance Mag. Time & Date
No recent earthquake activity has been reported nearby.
Minimum magnitude displayed is 2.5.

Coastal Water Temperatures

Place Temperature
No Stations Reporting

Nearby Weather Stations